sensor_id;sensor_type;location;lat;lon;timestamp;temperature;humidity
4530;DHT22;2277;51.626;7.516;2023-09-08T00:00:47;23.20;99.90
4530;DHT22;2277;51.626;7.516;2023-09-08T00:03:13;23.20;99.90
4530;DHT22;2277;51.626;7.516;2023-09-08T00:05:39;23.20;99.90
4530;DHT22;2277;51.626;7.516;2023-09-08T00:08:04;23.20;99.90
4530;DHT22;2277;51.626;7.516;2023-09-08T00:10:30;23.10;99.90
4530;DHT22;2277;51.626;7.516;2023-09-08T00:12:56;23.10;99.90
4530;DHT22;2277;51.626;7.516;2023-09-08T00:15:21;23.20;99.90
4530;DHT22;2277;51.626;7.516;2023-09-08T00:17:47;23.10;99.90
4530;DHT22;2277;51.626;7.516;2023-09-08T00:20:12;23.10;99.90
4530;DHT22;2277;51.626;7.516;2023-09-08T00:22:39;23.10;99.90
4530;DHT22;2277;51.626;7.516;2023-09-08T00:25:05;23.10;99.90
4530;DHT22;2277;51.626;7.516;2023-09-08T00:27:31;23.10;99.90
4530;DHT22;2277;51.626;7.516;2023-09-08T00:29:57;23.10;99.90
4530;DHT22;2277;51.626;7.516;2023-09-08T00:32:23;23.00;99.90
4530;DHT22;2277;51.626;7.516;2023-09-08T00:34:48;23.00;99.90
4530;DHT22;2277;51.626;7.516;2023-09-08T00:37:14;23.00;99.90
4530;DHT22;2277;51.626;7.516;2023-09-08T00:39:39;23.00;99.90
4530;DHT22;2277;51.626;7.516;2023-09-08T00:42:06;22.90;99.90
4530;DHT22;2277;51.626;7.516;2023-09-08T00:44:32;22.90;99.90
4530;DHT22;2277;51.626;7.516;2023-09-08T00:46:58;22.90;99.90
4530;DHT22;2277;51.626;7.516;2023-09-08T00:49:24;22.90;99.90
4530;DHT22;2277;51.626;7.516;2023-09-08T00:51:50;22.90;99.90
4530;DHT22;2277;51.626;7.516;2023-09-08T00:54:16;22.90;99.90
4530;DHT22;2277;51.626;7.516;2023-09-08T00:56:43;22.80;99.90
4530;DHT22;2277;51.626;7.516;2023-09-08T00:59:09;22.80;99.90
4530;DHT22;2277;51.626;7.516;2023-09-08T01:01:35;22.80;99.90
4530;DHT22;2277;51.626;7.516;2023-09-08T01:04:01;22.80;99.90
4530;DHT22;2277;51.626;7.516;2023-09-08T01:06:27;22.70;99.90
4530;DHT22;2277;51.626;7.516;2023-09-08T01:08:54;22.70;99.90
4530;DHT22;2277;51.626;7.516;2023-09-08T01:11:21;22.70;99.90
4530;DHT22;2277;51.626;7.516;2023-09-08T01:13:47;22.60;99.90
4530;DHT22;2277;51.626;7.516;2023-09-08T01:16:13;22.50;99.90
4530;DHT22;2277;51.626;7.516;2023-09-08T01:18:39;22.50;99.90
4530;DHT22;2277;51.626;7.516;2023-09-08T01:21:18;22.40;99.90
4530;DHT22;2277;51.626;7.516;2023-09-08T01:26:43;22.40;99.90
4530;DHT22;2277;51.626;7.516;2023-09-08T01:29:10;22.40;99.90
4530;DHT22;2277;51.626;7.516;2023-09-08T01:31:37;22.40;99.90
4530;DHT22;2277;51.626;7.516;2023-09-08T01:34:03;22.30;99.90
4530;DHT22;2277;51.626;7.516;2023-09-08T01:36:33;22.20;99.90
4530;DHT22;2277;51.626;7.516;2023-09-08T01:38:59;22.10;99.90
4530;DHT22;2277;51.626;7.516;2023-09-08T01:41:25;22.10;99.90
4530;DHT22;2277;51.626;7.516;2023-09-08T01:43:51;22.10;99.90
4530;DHT22;2277;51.626;7.516;2023-09-08T01:46:16;22.10;99.90
4530;DHT22;2277;51.626;7.516;2023-09-08T01:48:42;22.10;99.90
4530;DHT22;2277;51.626;7.516;2023-09-08T01:51:07;22.10;99.90
4530;DHT22;2277;51.626;7.516;2023-09-08T01:53:33;22.00;99.90
4530;DHT22;2277;51.626;7.516;2023-09-08T01:55:59;22.00;99.90
4530;DHT22;2277;51.626;7.516;2023-09-08T01:58:25;21.90;99.90
4530;DHT22;2277;51.626;7.516;2023-09-08T02:00:50;21.90;99.90
4530;DHT22;2277;51.626;7.516;2023-09-08T02:03:17;21.90;99.90
4530;DHT22;2277;51.626;7.516;2023-09-08T02:05:42;21.90;99.90
4530;DHT22;2277;51.626;7.516;2023-09-08T02:08:08;21.90;99.90
4530;DHT22;2277;51.626;7.516;2023-09-08T02:10:33;21.90;99.90
4530;DHT22;2277;51.626;7.516;2023-09-08T02:12:59;21.90;99.90
4530;DHT22;2277;51.626;7.516;2023-09-08T02:15:25;21.90;99.90
4530;DHT22;2277;51.626;7.516;2023-09-08T02:17:52;21.90;99.90
4530;DHT22;2277;51.626;7.516;2023-09-08T02:20:18;21.80;99.90
4530;DHT22;2277;51.626;7.516;2023-09-08T02:22:44;21.80;99.90
4530;DHT22;2277;51.626;7.516;2023-09-08T02:25:09;21.70;99.90
4530;DHT22;2277;51.626;7.516;2023-09-08T02:27:35;21.70;99.90
4530;DHT22;2277;51.626;7.516;2023-09-08T02:30:01;21.70;99.90
4530;DHT22;2277;51.626;7.516;2023-09-08T02:32:27;21.70;99.90
4530;DHT22;2277;51.626;7.516;2023-09-08T02:34:52;21.60;99.90
4530;DHT22;2277;51.626;7.516;2023-09-08T02:37:18;21.60;99.90
4530;DHT22;2277;51.626;7.516;2023-09-08T02:39:44;21.60;99.90
4530;DHT22;2277;51.626;7.516;2023-09-08T02:42:10;21.60;99.90
4530;DHT22;2277;51.626;7.516;2023-09-08T02:44:35;21.60;99.90
4530;DHT22;2277;51.626;7.516;2023-09-08T02:47:01;21.60;99.90
4530;DHT22;2277;51.626;7.516;2023-09-08T02:49:26;21.60;99.90
4530;DHT22;2277;51.626;7.516;2023-09-08T02:51:52;21.60;99.90
4530;DHT22;2277;51.626;7.516;2023-09-08T02:54:17;21.60;99.90
4530;DHT22;2277;51.626;7.516;2023-09-08T02:56:43;21.50;99.90
4530;DHT22;2277;51.626;7.516;2023-09-08T02:59:08;21.50;99.90
4530;DHT22;2277;51.626;7.516;2023-09-08T03:01:34;21.50;99.90
4530;DHT22;2277;51.626;7.516;2023-09-08T03:04:00;21.50;99.90
4530;DHT22;2277;51.626;7.516;2023-09-08T03:06:25;21.40;99.90
4530;DHT22;2277;51.626;7.516;2023-09-08T03:08:51;21.40;99.90
4530;DHT22;2277;51.626;7.516;2023-09-08T03:11:17;21.30;99.90
4530;DHT22;2277;51.626;7.516;2023-09-08T03:13:43;21.20;99.90
4530;DHT22;2277;51.626;7.516;2023-09-08T03:16:09;21.20;99.90
4530;DHT22;2277;51.626;7.516;2023-09-08T03:18:36;21.20;99.90
4530;DHT22;2277;51.626;7.516;2023-09-08T03:21:05;21.20;99.90
4530;DHT22;2277;51.626;7.516;2023-09-08T03:23:42;21.20;99.90
4530;DHT22;2277;51.626;7.516;2023-09-08T03:26:09;21.20;99.90
4530;DHT22;2277;51.626;7.516;2023-09-08T03:28:35;21.10;99.90
4530;DHT22;2277;51.626;7.516;2023-09-08T03:31:02;21.10;99.90
4530;DHT22;2277;51.626;7.516;2023-09-08T03:33:32;21.10;99.90
4530;DHT22;2277;51.626;7.516;2023-09-08T03:35:57;21.00;99.90
4530;DHT22;2277;51.626;7.516;2023-09-08T03:38:23;21.00;99.90
4530;DHT22;2277;51.626;7.516;2023-09-08T03:40:49;21.00;99.90
4530;DHT22;2277;51.626;7.516;2023-09-08T03:43:14;21.00;99.90
4530;DHT22;2277;51.626;7.516;2023-09-08T03:45:40;21.00;99.90
4530;DHT22;2277;51.626;7.516;2023-09-08T03:48:06;21.00;99.90
4530;DHT22;2277;51.626;7.516;2023-09-08T03:50:32;20.90;99.90
4530;DHT22;2277;51.626;7.516;2023-09-08T03:52:58;20.90;99.90
4530;DHT22;2277;51.626;7.516;2023-09-08T03:55:23;20.80;99.90
4530;DHT22;2277;51.626;7.516;2023-09-08T03:57:49;20.70;99.90
4530;DHT22;2277;51.626;7.516;2023-09-08T04:00:14;20.80;99.90
4530;DHT22;2277;51.626;7.516;2023-09-08T04:02:50;20.70;99.90
4530;DHT22;2277;51.626;7.516;2023-09-08T04:05:17;20.60;99.90
4530;DHT22;2277;51.626;7.516;2023-09-08T04:07:45;20.60;99.90
4530;DHT22;2277;51.626;7.516;2023-09-08T04:10:10;20.60;99.90
4530;DHT22;2277;51.626;7.516;2023-09-08T04:12:36;20.60;99.90
4530;DHT22;2277;51.626;7.516;2023-09-08T04:15:01;20.60;99.90
4530;DHT22;2277;51.626;7.516;2023-09-08T04:17:27;20.60;99.90
4530;DHT22;2277;51.626;7.516;2023-09-08T04:19:53;20.60;99.90
4530;DHT22;2277;51.626;7.516;2023-09-08T04:22:18;20.60;99.90
4530;DHT22;2277;51.626;7.516;2023-09-08T04:24:44;20.60;99.90
4530;DHT22;2277;51.626;7.516;2023-09-08T04:27:09;20.60;99.90
4530;DHT22;2277;51.626;7.516;2023-09-08T04:29:35;20.60;99.90
4530;DHT22;2277;51.626;7.516;2023-09-08T04:32:01;20.50;99.90
4530;DHT22;2277;51.626;7.516;2023-09-08T04:34:40;20.40;99.90
4530;DHT22;2277;51.626;7.516;2023-09-08T04:37:06;20.40;99.90
4530;DHT22;2277;51.626;7.516;2023-09-08T04:39:33;20.40;99.90
4530;DHT22;2277;51.626;7.516;2023-09-08T04:41:58;20.40;99.90
4530;DHT22;2277;51.626;7.516;2023-09-08T04:44:24;20.40;99.90
4530;DHT22;2277;51.626;7.516;2023-09-08T04:46:51;20.40;99.90
4530;DHT22;2277;51.626;7.516;2023-09-08T04:49:17;20.40;99.90
4530;DHT22;2277;51.626;7.516;2023-09-08T04:51:43;20.30;99.90
4530;DHT22;2277;51.626;7.516;2023-09-08T04:54:09;20.20;99.90
4530;DHT22;2277;51.626;7.516;2023-09-08T04:56:34;20.10;99.90
4530;DHT22;2277;51.626;7.516;2023-09-08T04:59:00;20.10;99.90
4530;DHT22;2277;51.626;7.516;2023-09-08T05:01:27;20.10;99.90
4530;DHT22;2277;51.626;7.516;2023-09-08T05:03:52;20.10;99.90
4530;DHT22;2277;51.626;7.516;2023-09-08T05:06:18;20.20;99.90
4530;DHT22;2277;51.626;7.516;2023-09-08T05:08:43;20.10;99.90
4530;DHT22;2277;51.626;7.516;2023-09-08T05:11:10;20.10;99.90
4530;DHT22;2277;51.626;7.516;2023-09-08T05:13:35;20.10;99.90
4530;DHT22;2277;51.626;7.516;2023-09-08T05:16:01;20.10;99.90
4530;DHT22;2277;51.626;7.516;2023-09-08T05:18:36;20.00;99.90
4530;DHT22;2277;51.626;7.516;2023-09-08T05:21:02;20.00;99.90
4530;DHT22;2277;51.626;7.516;2023-09-08T05:23:28;19.90;99.90
4530;DHT22;2277;51.626;7.516;2023-09-08T05:25:53;19.80;99.90
4530;DHT22;2277;51.626;7.516;2023-09-08T05:28:19;19.70;99.90
4530;DHT22;2277;51.626;7.516;2023-09-08T05:30:45;19.80;99.90
4530;DHT22;2277;51.626;7.516;2023-09-08T05:33:10;19.80;99.90
4530;DHT22;2277;51.626;7.516;2023-09-08T05:35:36;19.80;99.90
4530;DHT22;2277;51.626;7.516;2023-09-08T05:38:01;19.80;99.90
4530;DHT22;2277;51.626;7.516;2023-09-08T05:40:27;19.80;99.90
4530;DHT22;2277;51.626;7.516;2023-09-08T05:42:53;19.90;99.90
4530;DHT22;2277;51.626;7.516;2023-09-08T05:45:19;19.80;99.90
4530;DHT22;2277;51.626;7.516;2023-09-08T05:47:44;19.80;99.90
4530;DHT22;2277;51.626;7.516;2023-09-08T05:50:10;19.80;99.90
4530;DHT22;2277;51.626;7.516;2023-09-08T05:52:36;19.80;99.90
4530;DHT22;2277;51.626;7.516;2023-09-08T05:55:02;19.80;99.90
4530;DHT22;2277;51.626;7.516;2023-09-08T05:57:27;19.80;99.90
4530;DHT22;2277;51.626;7.516;2023-09-08T05:59:53;19.80;99.90
4530;DHT22;2277;51.626;7.516;2023-09-08T06:02:18;19.80;99.90
4530;DHT22;2277;51.626;7.516;2023-09-08T06:04:44;19.80;99.90
4530;DHT22;2277;51.626;7.516;2023-09-08T06:07:09;19.70;99.90
4530;DHT22;2277;51.626;7.516;2023-09-08T06:09:35;19.70;99.90
4530;DHT22;2277;51.626;7.516;2023-09-08T06:12:01;19.70;99.90
4530;DHT22;2277;51.626;7.516;2023-09-08T06:14:26;19.80;99.90
4530;DHT22;2277;51.626;7.516;2023-09-08T06:16:52;19.90;99.90
4530;DHT22;2277;51.626;7.516;2023-09-08T06:19:17;19.90;99.90
4530;DHT22;2277;51.626;7.516;2023-09-08T06:21:43;20.00;99.90
4530;DHT22;2277;51.626;7.516;2023-09-08T06:24:08;20.10;99.90
4530;DHT22;2277;51.626;7.516;2023-09-08T06:26:34;20.10;99.90
4530;DHT22;2277;51.626;7.516;2023-09-08T06:29:00;20.20;99.90
4530;DHT22;2277;51.626;7.516;2023-09-08T06:31:25;20.30;99.90
4530;DHT22;2277;51.626;7.516;2023-09-08T06:33:51;20.40;99.90
4530;DHT22;2277;51.626;7.516;2023-09-08T06:36:18;20.60;99.90
4530;DHT22;2277;51.626;7.516;2023-09-08T06:38:44;20.60;99.90
4530;DHT22;2277;51.626;7.516;2023-09-08T06:41:10;20.70;99.90
4530;DHT22;2277;51.626;7.516;2023-09-08T06:43:36;20.80;99.90
4530;DHT22;2277;51.626;7.516;2023-09-08T06:46:02;20.90;99.90
4530;DHT22;2277;51.626;7.516;2023-09-08T06:48:27;21.00;99.90
4530;DHT22;2277;51.626;7.516;2023-09-08T06:50:53;21.10;99.90
4530;DHT22;2277;51.626;7.516;2023-09-08T06:53:23;21.30;99.90
4530;DHT22;2277;51.626;7.516;2023-09-08T06:55:49;21.40;99.90
4530;DHT22;2277;51.626;7.516;2023-09-08T06:58:14;21.50;99.90
4530;DHT22;2277;51.626;7.516;2023-09-08T07:00:41;21.60;99.90
4530;DHT22;2277;51.626;7.516;2023-09-08T07:03:06;21.80;99.90
4530;DHT22;2277;51.626;7.516;2023-09-08T07:05:33;21.90;99.90
4530;DHT22;2277;51.626;7.516;2023-09-08T07:07:59;22.10;99.90
4530;DHT22;2277;51.626;7.516;2023-09-08T07:10:25;22.20;99.90
4530;DHT22;2277;51.626;7.516;2023-09-08T07:12:50;22.30;99.90
4530;DHT22;2277;51.626;7.516;2023-09-08T07:15:16;22.40;99.90
4530;DHT22;2277;51.626;7.516;2023-09-08T07:17:42;22.60;99.90
4530;DHT22;2277;51.626;7.516;2023-09-08T07:20:07;22.70;99.90
4530;DHT22;2277;51.626;7.516;2023-09-08T07:22:33;22.80;99.90
4530;DHT22;2277;51.626;7.516;2023-09-08T07:24:59;22.90;99.90
4530;DHT22;2277;51.626;7.516;2023-09-08T07:27:24;23.00;99.90
4530;DHT22;2277;51.626;7.516;2023-09-08T07:29:50;23.20;99.90
4530;DHT22;2277;51.626;7.516;2023-09-08T07:32:18;23.40;99.90
4530;DHT22;2277;51.626;7.516;2023-09-08T07:34:44;23.50;99.90
4530;DHT22;2277;51.626;7.516;2023-09-08T07:37:10;23.70;99.90
4530;DHT22;2277;51.626;7.516;2023-09-08T07:39:35;23.90;99.90
4530;DHT22;2277;51.626;7.516;2023-09-08T07:42:01;24.10;99.90
4530;DHT22;2277;51.626;7.516;2023-09-08T07:44:27;24.20;99.90
4530;DHT22;2277;51.626;7.516;2023-09-08T07:46:53;24.30;99.90
4530;DHT22;2277;51.626;7.516;2023-09-08T07:49:20;24.50;99.90
4530;DHT22;2277;51.626;7.516;2023-09-08T07:51:46;24.70;99.90
4530;DHT22;2277;51.626;7.516;2023-09-08T07:54:12;24.80;99.90
4530;DHT22;2277;51.626;7.516;2023-09-08T07:56:38;24.90;99.90
4530;DHT22;2277;51.626;7.516;2023-09-08T07:59:06;25.10;99.90
4530;DHT22;2277;51.626;7.516;2023-09-08T08:01:31;25.30;99.90
4530;DHT22;2277;51.626;7.516;2023-09-08T08:03:57;25.50;99.90
4530;DHT22;2277;51.626;7.516;2023-09-08T08:06:23;25.70;99.90
4530;DHT22;2277;51.626;7.516;2023-09-08T08:08:48;25.80;99.90
4530;DHT22;2277;51.626;7.516;2023-09-08T08:11:16;25.90;99.90
4530;DHT22;2277;51.626;7.516;2023-09-08T08:13:46;26.00;99.90
4530;DHT22;2277;51.626;7.516;2023-09-08T08:16:11;26.20;99.90
4530;DHT22;2277;51.626;7.516;2023-09-08T08:18:37;26.40;99.90
4530;DHT22;2277;51.626;7.516;2023-09-08T08:21:03;26.50;99.90
4530;DHT22;2277;51.626;7.516;2023-09-08T08:23:32;26.60;99.90
4530;DHT22;2277;51.626;7.516;2023-09-08T08:25:59;26.80;99.90
4530;DHT22;2277;51.626;7.516;2023-09-08T08:28:25;26.90;99.90
4530;DHT22;2277;51.626;7.516;2023-09-08T08:30:51;27.00;99.90
4530;DHT22;2277;51.626;7.516;2023-09-08T08:33:17;27.10;99.90
4530;DHT22;2277;51.626;7.516;2023-09-08T08:35:49;27.30;99.90
4530;DHT22;2277;51.626;7.516;2023-09-08T08:38:15;27.50;99.90
4530;DHT22;2277;51.626;7.516;2023-09-08T08:40:41;27.70;99.90
4530;DHT22;2277;51.626;7.516;2023-09-08T08:43:07;27.80;99.90
4530;DHT22;2277;51.626;7.516;2023-09-08T08:45:34;28.00;99.90
4530;DHT22;2277;51.626;7.516;2023-09-08T08:48:01;28.30;99.90
4530;DHT22;2277;51.626;7.516;2023-09-08T08:50:28;28.40;99.90
4530;DHT22;2277;51.626;7.516;2023-09-08T08:52:55;28.50;99.90
4530;DHT22;2277;51.626;7.516;2023-09-08T08:55:22;28.60;99.90
4530;DHT22;2277;51.626;7.516;2023-09-08T08:57:49;28.80;99.90
4530;DHT22;2277;51.626;7.516;2023-09-08T09:00:15;28.90;99.90
4530;DHT22;2277;51.626;7.516;2023-09-08T09:02:44;28.90;99.90
4530;DHT22;2277;51.626;7.516;2023-09-08T09:05:12;29.10;99.90
4530;DHT22;2277;51.626;7.516;2023-09-08T09:07:39;29.30;99.90
4530;DHT22;2277;51.626;7.516;2023-09-08T09:10:05;29.50;99.90
4530;DHT22;2277;51.626;7.516;2023-09-08T09:12:32;29.60;99.90
4530;DHT22;2277;51.626;7.516;2023-09-08T09:14:59;29.80;99.90
4530;DHT22;2277;51.626;7.516;2023-09-08T09:17:32;30.10;99.90
4530;DHT22;2277;51.626;7.516;2023-09-08T09:20:15;30.20;99.90
4530;DHT22;2277;51.626;7.516;2023-09-08T09:22:43;30.40;99.90
4530;DHT22;2277;51.626;7.516;2023-09-08T09:25:09;30.60;99.90
4530;DHT22;2277;51.626;7.516;2023-09-08T09:27:36;30.90;99.90
4530;DHT22;2277;51.626;7.516;2023-09-08T09:30:04;31.00;99.90
4530;DHT22;2277;51.626;7.516;2023-09-08T09:32:30;31.20;99.90
4530;DHT22;2277;51.626;7.516;2023-09-08T09:34:57;31.20;99.90
4530;DHT22;2277;51.626;7.516;2023-09-08T09:37:23;31.40;99.90
4530;DHT22;2277;51.626;7.516;2023-09-08T09:39:54;31.30;99.90
4530;DHT22;2277;51.626;7.516;2023-09-08T09:42:20;31.20;99.90
4530;DHT22;2277;51.626;7.516;2023-09-08T09:44:47;31.10;99.90
4530;DHT22;2277;51.626;7.516;2023-09-08T09:47:13;31.40;99.90
4530;DHT22;2277;51.626;7.516;2023-09-08T09:49:43;31.60;99.90
4530;DHT22;2277;51.626;7.516;2023-09-08T09:52:12;32.00;99.90
4530;DHT22;2277;51.626;7.516;2023-09-08T09:54:40;32.20;99.90
4530;DHT22;2277;51.626;7.516;2023-09-08T09:57:06;32.00;99.90
4530;DHT22;2277;51.626;7.516;2023-09-08T09:59:32;32.00;99.10
4530;DHT22;2277;51.626;7.516;2023-09-08T10:01:59;32.10;99.10
4530;DHT22;2277;51.626;7.516;2023-09-08T10:04:26;32.20;98.80
4530;DHT22;2277;51.626;7.516;2023-09-08T10:06:52;32.10;98.40
4530;DHT22;2277;51.626;7.516;2023-09-08T10:09:18;32.10;98.20
4530;DHT22;2277;51.626;7.516;2023-09-08T10:11:49;32.10;97.60
4530;DHT22;2277;51.626;7.516;2023-09-08T10:14:18;32.20;98.50
4530;DHT22;2277;51.626;7.516;2023-09-08T10:16:45;32.50;97.40
4530;DHT22;2277;51.626;7.516;2023-09-08T10:19:16;32.60;96.90
4530;DHT22;2277;51.626;7.516;2023-09-08T10:21:48;32.90;97.40
4530;DHT22;2277;51.626;7.516;2023-09-08T10:24:21;33.10;96.60
4530;DHT22;2277;51.626;7.516;2023-09-08T10:26:56;33.10;96.40
4530;DHT22;2277;51.626;7.516;2023-09-08T10:29:25;33.50;96.50
4530;DHT22;2277;51.626;7.516;2023-09-08T10:31:52;33.50;94.80
4530;DHT22;2277;51.626;7.516;2023-09-08T10:34:18;33.60;94.50
4530;DHT22;2277;51.626;7.516;2023-09-08T10:36:44;33.60;93.80
4530;DHT22;2277;51.626;7.516;2023-09-08T10:39:37;33.60;93.60
4530;DHT22;2277;51.626;7.516;2023-09-08T10:42:19;33.60;93.10
4530;DHT22;2277;51.626;7.516;2023-09-08T10:47:24;34.30;93.00
4530;DHT22;2277;51.626;7.516;2023-09-08T10:49:50;34.50;92.50
4530;DHT22;2277;51.626;7.516;2023-09-08T10:52:21;34.70;90.90
4530;DHT22;2277;51.626;7.516;2023-09-08T10:54:52;34.50;89.70
4530;DHT22;2277;51.626;7.516;2023-09-08T10:57:20;34.70;90.90
4530;DHT22;2277;51.626;7.516;2023-09-08T10:59:57;34.70;90.00
4530;DHT22;2277;51.626;7.516;2023-09-08T11:04:58;34.70;90.20
4530;DHT22;2277;51.626;7.516;2023-09-08T11:07:25;34.80;89.90
4530;DHT22;2277;51.626;7.516;2023-09-08T11:09:50;35.10;90.20
4530;DHT22;2277;51.626;7.516;2023-09-08T11:12:19;35.40;89.40
4530;DHT22;2277;51.626;7.516;2023-09-08T11:14:49;35.70;89.50
4530;DHT22;2277;51.626;7.516;2023-09-08T11:17:14;35.70;86.30
4530;DHT22;2277;51.626;7.516;2023-09-08T11:19:47;35.60;87.40
4530;DHT22;2277;51.626;7.516;2023-09-08T11:22:16;35.90;87.30
4530;DHT22;2277;51.626;7.516;2023-09-08T11:24:43;36.10;88.40
4530;DHT22;2277;51.626;7.516;2023-09-08T11:27:09;36.00;83.10
4530;DHT22;2277;51.626;7.516;2023-09-08T11:29:35;36.10;83.10
4530;DHT22;2277;51.626;7.516;2023-09-08T11:32:02;35.90;82.00
4530;DHT22;2277;51.626;7.516;2023-09-08T11:34:29;35.90;79.10
4530;DHT22;2277;51.626;7.516;2023-09-08T11:36:54;35.90;78.90
4530;DHT22;2277;51.626;7.516;2023-09-08T11:39:23;35.90;77.10
4530;DHT22;2277;51.626;7.516;2023-09-08T11:41:51;36.30;78.10
4530;DHT22;2277;51.626;7.516;2023-09-08T11:44:17;36.60;76.30
4530;DHT22;2277;51.626;7.516;2023-09-08T11:46:43;36.70;74.50
4530;DHT22;2277;51.626;7.516;2023-09-08T11:49:09;36.70;76.00
4530;DHT22;2277;51.626;7.516;2023-09-08T11:51:34;36.80;73.50
4530;DHT22;2277;51.626;7.516;2023-09-08T11:54:00;36.90;74.40
4530;DHT22;2277;51.626;7.516;2023-09-08T11:56:26;37.10;73.40
4530;DHT22;2277;51.626;7.516;2023-09-08T11:58:52;37.00;74.10
4530;DHT22;2277;51.626;7.516;2023-09-08T12:01:18;37.20;72.40
4530;DHT22;2277;51.626;7.516;2023-09-08T12:03:55;37.30;71.40
4530;DHT22;2277;51.626;7.516;2023-09-08T12:06:27;37.20;70.70
4530;DHT22;2277;51.626;7.516;2023-09-08T12:08:54;37.20;67.30
4530;DHT22;2277;51.626;7.516;2023-09-08T12:11:20;37.20;68.00
4530;DHT22;2277;51.626;7.516;2023-09-08T12:13:46;37.30;70.60
4530;DHT22;2277;51.626;7.516;2023-09-08T12:16:21;37.50;68.30
4530;DHT22;2277;51.626;7.516;2023-09-08T12:18:48;37.60;70.70
4530;DHT22;2277;51.626;7.516;2023-09-08T12:21:15;38.00;72.90
4530;DHT22;2277;51.626;7.516;2023-09-08T12:23:48;37.80;66.30
4530;DHT22;2277;51.626;7.516;2023-09-08T12:26:14;38.00;66.30
4530;DHT22;2277;51.626;7.516;2023-09-08T12:28:42;38.10;67.30
4530;DHT22;2277;51.626;7.516;2023-09-08T12:31:08;38.40;65.60
4530;DHT22;2277;51.626;7.516;2023-09-08T12:33:35;38.50;66.50
4530;DHT22;2277;51.626;7.516;2023-09-08T12:36:12;38.60;67.40
4530;DHT22;2277;51.626;7.516;2023-09-08T12:38:38;38.80;63.20
4530;DHT22;2277;51.626;7.516;2023-09-08T12:41:04;38.80;63.20
4530;DHT22;2277;51.626;7.516;2023-09-08T12:43:29;38.80;60.20
4530;DHT22;2277;51.626;7.516;2023-09-08T12:45:55;38.90;61.10
4530;DHT22;2277;51.626;7.516;2023-09-08T12:48:22;38.90;59.10
4530;DHT22;2277;51.626;7.516;2023-09-08T12:50:48;39.00;58.40
4530;DHT22;2277;51.626;7.516;2023-09-08T12:53:14;38.90;58.20
4530;DHT22;2277;51.626;7.516;2023-09-08T12:55:40;38.70;57.70
4530;DHT22;2277;51.626;7.516;2023-09-08T12:58:05;38.80;59.80
4530;DHT22;2277;51.626;7.516;2023-09-08T13:00:31;38.90;57.30
4530;DHT22;2277;51.626;7.516;2023-09-08T13:02:57;38.70;57.40
4530;DHT22;2277;51.626;7.516;2023-09-08T13:05:22;38.80;57.40
4530;DHT22;2277;51.626;7.516;2023-09-08T13:07:48;38.80;57.00
4530;DHT22;2277;51.626;7.516;2023-09-08T13:10:13;38.80;57.60
4530;DHT22;2277;51.626;7.516;2023-09-08T13:12:40;38.90;57.70
4530;DHT22;2277;51.626;7.516;2023-09-08T13:15:06;39.00;57.10
4530;DHT22;2277;51.626;7.516;2023-09-08T13:17:32;38.90;55.80
4530;DHT22;2277;51.626;7.516;2023-09-08T13:19:57;39.00;57.30
4530;DHT22;2277;51.626;7.516;2023-09-08T13:22:23;39.00;55.80
4530;DHT22;2277;51.626;7.516;2023-09-08T13:24:49;39.00;56.50
4530;DHT22;2277;51.626;7.516;2023-09-08T13:27:14;39.00;54.50
4530;DHT22;2277;51.626;7.516;2023-09-08T13:29:42;38.60;53.70
4530;DHT22;2277;51.626;7.516;2023-09-08T13:32:08;38.20;53.90
4530;DHT22;2277;51.626;7.516;2023-09-08T13:34:34;38.30;55.30
4530;DHT22;2277;51.626;7.516;2023-09-08T13:37:01;38.50;54.40
4530;DHT22;2277;51.626;7.516;2023-09-08T13:39:28;38.60;56.80
4530;DHT22;2277;51.626;7.516;2023-09-08T13:41:54;38.80;57.90
4530;DHT22;2277;51.626;7.516;2023-09-08T13:44:22;38.70;55.30
4530;DHT22;2277;51.626;7.516;2023-09-08T13:46:48;38.90;56.00
4530;DHT22;2277;51.626;7.516;2023-09-08T13:49:14;39.10;54.60
4530;DHT22;2277;51.626;7.516;2023-09-08T13:51:40;39.10;54.90
4530;DHT22;2277;51.626;7.516;2023-09-08T13:54:07;39.00;55.50
4530;DHT22;2277;51.626;7.516;2023-09-08T13:56:33;39.10;56.20
4530;DHT22;2277;51.626;7.516;2023-09-08T13:58:59;39.20;55.40
4530;DHT22;2277;51.626;7.516;2023-09-08T14:01:24;39.30;58.20
4530;DHT22;2277;51.626;7.516;2023-09-08T14:03:53;39.40;56.90
4530;DHT22;2277;51.626;7.516;2023-09-08T14:06:19;39.40;54.60
4530;DHT22;2277;51.626;7.516;2023-09-08T14:08:44;39.30;53.80
4530;DHT22;2277;51.626;7.516;2023-09-08T14:11:10;39.40;53.60
4530;DHT22;2277;51.626;7.516;2023-09-08T14:13:37;39.40;54.80
4530;DHT22;2277;51.626;7.516;2023-09-08T14:16:03;39.40;55.70
4530;DHT22;2277;51.626;7.516;2023-09-08T14:18:29;39.50;57.30
4530;DHT22;2277;51.626;7.516;2023-09-08T14:20:55;39.50;56.50
4530;DHT22;2277;51.626;7.516;2023-09-08T14:23:20;39.50;54.90
4530;DHT22;2277;51.626;7.516;2023-09-08T14:25:46;39.50;53.60
4530;DHT22;2277;51.626;7.516;2023-09-08T14:28:12;39.40;53.40
4530;DHT22;2277;51.626;7.516;2023-09-08T14:30:37;39.40;55.20
4530;DHT22;2277;51.626;7.516;2023-09-08T14:33:03;39.40;55.30
4530;DHT22;2277;51.626;7.516;2023-09-08T14:35:29;39.40;57.30
4530;DHT22;2277;51.626;7.516;2023-09-08T14:37:54;39.40;54.10
4530;DHT22;2277;51.626;7.516;2023-09-08T14:40:22;39.40;53.20
4530;DHT22;2277;51.626;7.516;2023-09-08T14:42:48;39.10;52.90
4530;DHT22;2277;51.626;7.516;2023-09-08T14:45:14;39.10;55.00
4530;DHT22;2277;51.626;7.516;2023-09-08T14:47:39;39.20;52.80
4530;DHT22;2277;51.626;7.516;2023-09-08T14:50:05;39.20;53.40
4530;DHT22;2277;51.626;7.516;2023-09-08T14:52:31;39.20;55.40
4530;DHT22;2277;51.626;7.516;2023-09-08T14:54:56;39.20;53.80
4530;DHT22;2277;51.626;7.516;2023-09-08T14:57:22;39.20;57.60
4530;DHT22;2277;51.626;7.516;2023-09-08T14:59:48;39.20;58.20
4530;DHT22;2277;51.626;7.516;2023-09-08T15:02:14;39.20;56.60
4530;DHT22;2277;51.626;7.516;2023-09-08T15:04:40;39.10;54.50
4530;DHT22;2277;51.626;7.516;2023-09-08T15:07:06;39.10;56.40
4530;DHT22;2277;51.626;7.516;2023-09-08T15:09:32;39.10;56.50
4530;DHT22;2277;51.626;7.516;2023-09-08T15:11:58;39.10;56.00
4530;DHT22;2277;51.626;7.516;2023-09-08T15:14:24;39.20;57.00
4530;DHT22;2277;51.626;7.516;2023-09-08T15:16:50;39.20;54.50
4530;DHT22;2277;51.626;7.516;2023-09-08T15:19:15;39.10;55.70
4530;DHT22;2277;51.626;7.516;2023-09-08T15:21:41;39.10;56.80
4530;DHT22;2277;51.626;7.516;2023-09-08T15:24:07;39.00;55.10
4530;DHT22;2277;51.626;7.516;2023-09-08T15:26:33;38.90;54.00
4530;DHT22;2277;51.626;7.516;2023-09-08T15:28:58;38.80;54.70
4530;DHT22;2277;51.626;7.516;2023-09-08T15:31:25;38.80;53.70
4530;DHT22;2277;51.626;7.516;2023-09-08T15:33:50;38.80;54.50
4530;DHT22;2277;51.626;7.516;2023-09-08T15:36:17;38.50;55.00
4530;DHT22;2277;51.626;7.516;2023-09-08T15:38:43;38.60;53.60
4530;DHT22;2277;51.626;7.516;2023-09-08T15:43:39;38.60;53.00
4530;DHT22;2277;51.626;7.516;2023-09-08T15:46:06;38.60;53.60
4530;DHT22;2277;51.626;7.516;2023-09-08T15:48:38;38.50;53.30
4530;DHT22;2277;51.626;7.516;2023-09-08T15:51:04;38.40;56.10
4530;DHT22;2277;51.626;7.516;2023-09-08T15:53:30;38.40;57.40
4530;DHT22;2277;51.626;7.516;2023-09-08T15:55:57;38.30;58.00
4530;DHT22;2277;51.626;7.516;2023-09-08T15:58:22;38.30;58.00
4530;DHT22;2277;51.626;7.516;2023-09-08T16:00:48;38.30;57.70
4530;DHT22;2277;51.626;7.516;2023-09-08T16:03:13;38.20;56.50
4530;DHT22;2277;51.626;7.516;2023-09-08T16:05:39;38.00;54.40
4530;DHT22;2277;51.626;7.516;2023-09-08T16:08:05;38.00;54.80